sensor_id;sensor_type;location;lat;lon;timestamp;P1;durP1;ratioP1;P2;durP2;ratioP2
12900;SDS011;6518;50.930;5.344;2022-10-15T00:02:04;11.57;;;10.47;;
12900;SDS011;6518;50.930;5.344;2022-10-15T00:04:31;11.75;;;10.55;;
12900;SDS011;6518;50.930;5.344;2022-10-15T00:07:00;12.13;;;10.93;;
12900;SDS011;6518;50.930;5.344;2022-10-15T00:09:27;12.63;;;11.43;;
12900;SDS011;6518;50.930;5.344;2022-10-15T00:11:54;12.32;;;11.13;;
12900;SDS011;6518;50.930;5.344;2022-10-15T00:14:21;13.17;;;11.77;;
12900;SDS011;6518;50.930;5.344;2022-10-15T00:16:48;13.43;;;12.13;;
12900;SDS011;6518;50.930;5.344;2022-10-15T00:19:14;12.45;;;11.25;;
12900;SDS011;6518;50.930;5.344;2022-10-15T00:21:41;12.35;;;11.15;;
12900;SDS011;6518;50.930;5.344;2022-10-15T00:24:09;12.50;;;11.40;;
12900;SDS011;6518;50.930;5.344;2022-10-15T00:26:36;13.17;;;11.87;;
12900;SDS011;6518;50.930;5.344;2022-10-15T00:29:03;13.50;;;12.30;;
12900;SDS011;6518;50.930;5.344;2022-10-15T00:31:30;12.50;;;11.40;;
12900;SDS011;6518;50.930;5.344;2022-10-15T00:33:58;13.48;;;12.15;;
12900;SDS011;6518;50.930;5.344;2022-10-15T00:36:27;13.87;;;12.43;;
12900;SDS011;6518;50.930;5.344;2022-10-15T00:38:55;13.95;;;12.23;;
12900;SDS011;6518;50.930;5.344;2022-10-15T00:41:24;14.03;;;12.73;;
12900;SDS011;6518;50.930;5.344;2022-10-15T00:43:55;14.13;;;12.80;;
12900;SDS011;6518;50.930;5.344;2022-10-15T00:46:24;13.53;;;12.23;;
12900;SDS011;6518;50.930;5.344;2022-10-15T00:48:55;14.38;;;12.77;;
12900;SDS011;6518;50.930;5.344;2022-10-15T00:51:26;14.38;;;12.27;;
12900;SDS011;6518;50.930;5.344;2022-10-15T00:53:56;13.85;;;12.55;;
12900;SDS011;6518;50.930;5.344;2022-10-15T00:56:25;14.05;;;12.75;;
12900;SDS011;6518;50.930;5.344;2022-10-15T00:58:53;14.90;;;13.50;;
12900;SDS011;6518;50.930;5.344;2022-10-15T01:01:21;15.02;;;13.63;;
12900;SDS011;6518;50.930;5.344;2022-10-15T01:03:49;15.30;;;13.80;;
12900;SDS011;6518;50.930;5.344;2022-10-15T01:06:16;14.35;;;13.00;;
12900;SDS011;6518;50.930;5.344;2022-10-15T01:08:43;15.57;;;14.07;;
12900;SDS011;6518;50.930;5.344;2022-10-15T01:11:14;15.87;;;14.43;;
12900;SDS011;6518;50.930;5.344;2022-10-15T01:13:55;16.23;;;14.63;;
12900;SDS011;6518;50.930;5.344;2022-10-15T01:16:29;16.80;;;15.30;;
12900;SDS011;6518;50.930;5.344;2022-10-15T01:19:05;16.03;;;14.43;;
12900;SDS011;6518;50.930;5.344;2022-10-15T01:21:39;16.63;;;15.10;;
12900;SDS011;6518;50.930;5.344;2022-10-15T01:24:28;17.88;;;15.98;;
12900;SDS011;6518;50.930;5.344;2022-10-15T01:27:17;17.23;;;15.60;;
12900;SDS011;6518;50.930;5.344;2022-10-15T01:35:47;18.75;;;16.75;;
12900;SDS011;6518;50.930;5.344;2022-10-15T01:38:24;20.15;;;18.05;;
12900;SDS011;6518;50.930;5.344;2022-10-15T01:40:58;19.73;;;17.58;;
12900;SDS011;6518;50.930;5.344;2022-10-15T01:43:31;17.98;;;16.17;;
12900;SDS011;6518;50.930;5.344;2022-10-15T01:46:04;19.47;;;17.67;;
12900;SDS011;6518;50.930;5.344;2022-10-15T01:48:36;20.83;;;18.80;;
12900;SDS011;6518;50.930;5.344;2022-10-15T01:51:05;20.42;;;18.50;;
12900;SDS011;6518;50.930;5.344;2022-10-15T01:53:32;21.98;;;18.33;;
12900;SDS011;6518;50.930;5.344;2022-10-15T01:56:02;20.42;;;18.33;;
12900;SDS011;6518;50.930;5.344;2022-10-15T01:58:31;22.07;;;19.87;;
12900;SDS011;6518;50.930;5.344;2022-10-15T02:01:04;20.73;;;18.20;;
12900;SDS011;6518;50.930;5.344;2022-10-15T02:03:31;20.90;;;18.80;;
12900;SDS011;6518;50.930;5.344;2022-10-15T02:06:09;20.67;;;18.60;;
12900;SDS011;6518;50.930;5.344;2022-10-15T02:08:43;22.15;;;19.63;;
12900;SDS011;6518;50.930;5.344;2022-10-15T02:11:18;21.07;;;18.83;;
12900;SDS011;6518;50.930;5.344;2022-10-15T02:13:49;21.70;;;19.60;;
12900;SDS011;6518;50.930;5.344;2022-10-15T02:16:26;21.30;;;19.20;;
12900;SDS011;6518;50.930;5.344;2022-10-15T02:18:57;20.50;;;18.30;;
12900;SDS011;6518;50.930;5.344;2022-10-15T02:21:31;22.03;;;19.83;;
12900;SDS011;6518;50.930;5.344;2022-10-15T02:24:05;20.57;;;18.57;;
12900;SDS011;6518;50.930;5.344;2022-10-15T02:26:36;20.80;;;18.70;;
12900;SDS011;6518;50.930;5.344;2022-10-15T02:29:06;19.97;;;18.07;;
12900;SDS011;6518;50.930;5.344;2022-10-15T02:31:38;20.00;;;18.00;;
12900;SDS011;6518;50.930;5.344;2022-10-15T02:34:08;20.00;;;18.00;;
12900;SDS011;6518;50.930;5.344;2022-10-15T02:36:38;19.57;;;17.67;;
12900;SDS011;6518;50.930;5.344;2022-10-15T02:39:06;19.40;;;17.40;;
12900;SDS011;6518;50.930;5.344;2022-10-15T02:41:36;18.80;;;17.00;;
12900;SDS011;6518;50.930;5.344;2022-10-15T02:44:04;18.53;;;16.73;;
12900;SDS011;6518;50.930;5.344;2022-10-15T02:46:31;19.30;;;17.30;;
12900;SDS011;6518;50.930;5.344;2022-10-15T02:49:00;20.13;;;16.83;;
12900;SDS011;6518;50.930;5.344;2022-10-15T02:51:30;16.87;;;15.17;;
12900;SDS011;6518;50.930;5.344;2022-10-15T02:53:57;17.02;;;15.32;;
12900;SDS011;6518;50.930;5.344;2022-10-15T02:56:24;17.73;;;15.93;;
12900;SDS011;6518;50.930;5.344;2022-10-15T02:58:51;17.10;;;15.40;;
12900;SDS011;6518;50.930;5.344;2022-10-15T03:01:18;18.80;;;16.02;;
12900;SDS011;6518;50.930;5.344;2022-10-15T03:03:45;16.67;;;14.93;;
12900;SDS011;6518;50.930;5.344;2022-10-15T03:06:13;17.60;;;15.90;;
12900;SDS011;6518;50.930;5.344;2022-10-15T03:08:41;17.03;;;15.27;;
12900;SDS011;6518;50.930;5.344;2022-10-15T03:11:08;16.90;;;15.20;;
12900;SDS011;6518;50.930;5.344;2022-10-15T03:13:35;19.27;;;16.58;;
12900;SDS011;6518;50.930;5.344;2022-10-15T03:16:03;18.07;;;16.10;;
12900;SDS011;6518;50.930;5.344;2022-10-15T03:18:30;17.52;;;15.68;;
12900;SDS011;6518;50.930;5.344;2022-10-15T03:20:57;17.37;;;15.53;;
12900;SDS011;6518;50.930;5.344;2022-10-15T03:23:26;18.27;;;15.33;;
12900;SDS011;6518;50.930;5.344;2022-10-15T03:25:54;21.30;;;16.40;;
12900;SDS011;6518;50.930;5.344;2022-10-15T03:28:21;17.77;;;15.90;;
12900;SDS011;6518;50.930;5.344;2022-10-15T03:30:48;18.50;;;16.57;;
12900;SDS011;6518;50.930;5.344;2022-10-15T03:33:14;20.33;;;16.03;;
12900;SDS011;6518;50.930;5.344;2022-10-15T03:35:41;19.60;;;17.00;;
12900;SDS011;6518;50.930;5.344;2022-10-15T03:38:08;19.60;;;16.65;;
12900;SDS011;6518;50.930;5.344;2022-10-15T03:40:36;18.55;;;16.10;;
12900;SDS011;6518;50.930;5.344;2022-10-15T03:43:03;18.33;;;16.33;;
12900;SDS011;6518;50.930;5.344;2022-10-15T03:45:30;17.93;;;16.00;;
12900;SDS011;6518;50.930;5.344;2022-10-15T03:47:57;18.23;;;16.27;;
12900;SDS011;6518;50.930;5.344;2022-10-15T03:50:24;19.10;;;16.55;;
12900;SDS011;6518;50.930;5.344;2022-10-15T03:52:51;21.30;;;17.90;;
12900;SDS011;6518;50.930;5.344;2022-10-15T03:55:18;23.37;;;17.97;;
12900;SDS011;6518;50.930;5.344;2022-10-15T03:57:46;19.90;;;17.63;;
12900;SDS011;6518;50.930;5.344;2022-10-15T04:00:13;23.08;;;18.85;;
12900;SDS011;6518;50.930;5.344;2022-10-15T04:02:41;27.60;;;17.97;;
12900;SDS011;6518;50.930;5.344;2022-10-15T04:05:07;26.60;;;19.17;;
12900;SDS011;6518;50.930;5.344;2022-10-15T04:07:34;21.13;;;17.93;;
12900;SDS011;6518;50.930;5.344;2022-10-15T04:10:01;25.65;;;18.98;;
12900;SDS011;6518;50.930;5.344;2022-10-15T04:12:28;21.93;;;18.33;;
12900;SDS011;6518;50.930;5.344;2022-10-15T04:14:56;24.08;;;19.65;;
12900;SDS011;6518;50.930;5.344;2022-10-15T04:17:23;25.20;;;19.08;;
12900;SDS011;6518;50.930;5.344;2022-10-15T04:19:50;23.90;;;18.90;;
12900;SDS011;6518;50.930;5.344;2022-10-15T04:22:17;24.88;;;19.65;;
12900;SDS011;6518;50.930;5.344;2022-10-15T04:24:44;19.87;;;17.37;;
12900;SDS011;6518;50.930;5.344;2022-10-15T04:27:11;25.10;;;19.40;;
12900;SDS011;6518;50.930;5.344;2022-10-15T04:29:38;24.33;;;19.50;;
12900;SDS011;6518;50.930;5.344;2022-10-15T04:32:06;25.43;;;20.20;;
12900;SDS011;6518;50.930;5.344;2022-10-15T04:34:35;23.83;;;19.10;;
12900;SDS011;6518;50.930;5.344;2022-10-15T04:37:03;26.57;;;18.37;;
12900;SDS011;6518;50.930;5.344;2022-10-15T04:39:30;25.40;;;20.47;;
12900;SDS011;6518;50.930;5.344;2022-10-15T04:41:57;23.40;;;18.43;;
12900;SDS011;6518;50.930;5.344;2022-10-15T04:44:23;24.42;;;20.15;;
12900;SDS011;6518;50.930;5.344;2022-10-15T04:46:50;28.27;;;21.25;;
12900;SDS011;6518;50.930;5.344;2022-10-15T04:49:18;26.80;;;19.80;;
12900;SDS011;6518;50.930;5.344;2022-10-15T04:51:45;23.73;;;19.83;;
12900;SDS011;6518;50.930;5.344;2022-10-15T04:54:12;26.63;;;20.87;;
12900;SDS011;6518;50.930;5.344;2022-10-15T04:56:39;25.03;;;18.90;;
12900;SDS011;6518;50.930;5.344;2022-10-15T04:59:06;24.37;;;19.60;;
12900;SDS011;6518;50.930;5.344;2022-10-15T05:01:33;26.17;;;20.33;;
12900;SDS011;6518;50.930;5.344;2022-10-15T05:04:00;23.77;;;18.83;;
12900;SDS011;6518;50.930;5.344;2022-10-15T05:06:28;25.23;;;19.90;;
12900;SDS011;6518;50.930;5.344;2022-10-15T05:08:58;27.10;;;20.07;;
12900;SDS011;6518;50.930;5.344;2022-10-15T05:11:26;25.73;;;19.63;;
12900;SDS011;6518;50.930;5.344;2022-10-15T05:13:54;24.17;;;19.37;;
12900;SDS011;6518;50.930;5.344;2022-10-15T05:16:22;23.87;;;18.70;;
12900;SDS011;6518;50.930;5.344;2022-10-15T05:18:50;22.63;;;18.40;;
12900;SDS011;6518;50.930;5.344;2022-10-15T05:21:20;22.80;;;18.73;;
12900;SDS011;6518;50.930;5.344;2022-10-15T05:23:48;21.97;;;18.40;;
12900;SDS011;6518;50.930;5.344;2022-10-15T05:26:15;19.77;;;16.37;;
12900;SDS011;6518;50.930;5.344;2022-10-15T05:28:44;20.70;;;16.60;;
12900;SDS011;6518;50.930;5.344;2022-10-15T05:31:12;19.90;;;16.17;;
12900;SDS011;6518;50.930;5.344;2022-10-15T05:33:40;20.57;;;17.13;;
12900;SDS011;6518;50.930;5.344;2022-10-15T05:36:08;20.13;;;16.57;;
12900;SDS011;6518;50.930;5.344;2022-10-15T05:38:36;21.97;;;17.63;;
12900;SDS011;6518;50.930;5.344;2022-10-15T05:41:04;24.30;;;17.70;;
12900;SDS011;6518;50.930;5.344;2022-10-15T05:43:31;21.83;;;16.80;;
12900;SDS011;6518;50.930;5.344;2022-10-15T05:45:58;20.10;;;16.37;;
12900;SDS011;6518;50.930;5.344;2022-10-15T05:48:24;19.87;;;15.77;;
12900;SDS011;6518;50.930;5.344;2022-10-15T05:50:51;19.00;;;14.67;;
12900;SDS011;6518;50.930;5.344;2022-10-15T05:53:18;14.97;;;13.27;;
12900;SDS011;6518;50.930;5.344;2022-10-15T05:55:45;19.90;;;13.53;;
12900;SDS011;6518;50.930;5.344;2022-10-15T05:58:13;12.50;;;10.77;;
12900;SDS011;6518;50.930;5.344;2022-10-15T06:00:40;13.63;;;10.87;;
12900;SDS011;6518;50.930;5.344;2022-10-15T06:03:09;13.57;;;11.30;;
12900;SDS011;6518;50.930;5.344;2022-10-15T06:05:38;13.55;;;10.38;;
12900;SDS011;6518;50.930;5.344;2022-10-15T06:08:05;12.93;;;9.10;;
12900;SDS011;6518;50.930;5.344;2022-10-15T06:10:34;10.33;;;8.13;;
12900;SDS011;6518;50.930;5.344;2022-10-15T06:13:02;8.90;;;7.60;;
12900;SDS011;6518;50.930;5.344;2022-10-15T06:15:30;10.55;;;7.68;;
12900;SDS011;6518;50.930;5.344;2022-10-15T06:17:57;10.17;;;7.63;;
12900;SDS011;6518;50.930;5.344;2022-10-15T06:20:24;10.37;;;8.00;;
12900;SDS011;6518;50.930;5.344;2022-10-15T06:22:54;8.37;;;7.47;;
12900;SDS011;6518;50.930;5.344;2022-10-15T06:25:22;9.43;;;7.87;;
12900;SDS011;6518;50.930;5.344;2022-10-15T06:27:49;9.47;;;7.90;;
12900;SDS011;6518;50.930;5.344;2022-10-15T06:30:16;10.83;;;8.13;;
12900;SDS011;6518;50.930;5.344;2022-10-15T06:32:47;9.77;;;7.80;;
12900;SDS011;6518;50.930;5.344;2022-10-15T06:35:14;10.20;;;8.20;;
12900;SDS011;6518;50.930;5.344;2022-10-15T06:37:41;9.25;;;7.97;;
12900;SDS011;6518;50.930;5.344;2022-10-15T06:40:08;10.80;;;7.33;;
12900;SDS011;6518;50.930;5.344;2022-10-15T06:42:36;9.93;;;7.90;;
12900;SDS011;6518;50.930;5.344;2022-10-15T06:45:03;9.88;;;7.97;;
12900;SDS011;6518;50.930;5.344;2022-10-15T06:47:31;10.13;;;7.47;;
12900;SDS011;6518;50.930;5.344;2022-10-15T06:50:00;8.75;;;7.28;;
12900;SDS011;6518;50.930;5.344;2022-10-15T06:52:28;8.75;;;6.85;;
12900;SDS011;6518;50.930;5.344;2022-10-15T06:54:55;9.17;;;7.00;;
12900;SDS011;6518;50.930;5.344;2022-10-15T06:57:21;8.75;;;6.80;;
12900;SDS011;6518;50.930;5.344;2022-10-15T06:59:49;10.02;;;7.43;;
12900;SDS011;6518;50.930;5.344;2022-10-15T07:02:16;9.93;;;6.90;;
12900;SDS011;6518;50.930;5.344;2022-10-15T07:04:43;7.45;;;6.50;;
12900;SDS011;6518;50.930;5.344;2022-10-15T07:07:12;7.23;;;6.37;;
12900;SDS011;6518;50.930;5.344;2022-10-15T07:09:39;8.77;;;6.68;;
12900;SDS011;6518;50.930;5.344;2022-10-15T07:12:06;8.27;;;6.72;;
12900;SDS011;6518;50.930;5.344;2022-10-15T07:14:33;7.88;;;7.07;;
12900;SDS011;6518;50.930;5.344;2022-10-15T07:17:00;9.05;;;7.88;;
12900;SDS011;6518;50.930;5.344;2022-10-15T07:19:26;7.47;;;6.72;;
12900;SDS011;6518;50.930;5.344;2022-10-15T07:21:53;7.32;;;5.80;;
12900;SDS011;6518;50.930;5.344;2022-10-15T07:24:21;7.93;;;5.75;;
12900;SDS011;6518;50.930;5.344;2022-10-15T07:26:48;7.07;;;5.60;;
12900;SDS011;6518;50.930;5.344;2022-10-15T07:29:15;6.88;;;5.47;;
12900;SDS011;6518;50.930;5.344;2022-10-15T07:31:42;7.40;;;5.10;;
12900;SDS011;6518;50.930;5.344;2022-10-15T07:34:09;6.00;;;5.07;;
12900;SDS011;6518;50.930;5.344;2022-10-15T07:36:35;6.63;;;5.22;;
12900;SDS011;6518;50.930;5.344;2022-10-15T07:39:02;6.80;;;5.25;;
12900;SDS011;6518;50.930;5.344;2022-10-15T07:41:30;6.43;;;4.97;;
12900;SDS011;6518;50.930;5.344;2022-10-15T07:43:57;5.37;;;4.20;;
12900;SDS011;6518;50.930;5.344;2022-10-15T07:46:24;7.25;;;4.95;;
12900;SDS011;6518;50.930;5.344;2022-10-15T07:48:51;6.68;;;4.63;;
12900;SDS011;6518;50.930;5.344;2022-10-15T07:51:18;6.57;;;4.95;;
12900;SDS011;6518;50.930;5.344;2022-10-15T07:53:45;4.97;;;4.10;;
12900;SDS011;6518;50.930;5.344;2022-10-15T07:56:16;4.40;;;4.00;;
12900;SDS011;6518;50.930;5.344;2022-10-15T07:58:44;5.20;;;4.43;;
12900;SDS011;6518;50.930;5.344;2022-10-15T08:01:16;6.75;;;4.28;;
12900;SDS011;6518;50.930;5.344;2022-10-15T08:03:44;5.28;;;3.97;;
12900;SDS011;6518;50.930;5.344;2022-10-15T08:06:11;4.15;;;3.45;;
12900;SDS011;6518;50.930;5.344;2022-10-15T08:08:38;4.80;;;3.65;;
12900;SDS011;6518;50.930;5.344;2022-10-15T08:11:05;5.07;;;3.42;;
12900;SDS011;6518;50.930;5.344;2022-10-15T08:13:32;5.03;;;3.28;;
12900;SDS011;6518;50.930;5.344;2022-10-15T08:16:00;4.80;;;3.42;;
12900;SDS011;6518;50.930;5.344;2022-10-15T08:18:27;3.83;;;2.90;;
12900;SDS011;6518;50.930;5.344;2022-10-15T08:20:57;3.58;;;2.70;;
12900;SDS011;6518;50.930;5.344;2022-10-15T08:23:25;4.13;;;2.97;;
12900;SDS011;6518;50.930;5.344;2022-10-15T08:25:52;3.85;;;2.40;;
12900;SDS011;6518;50.930;5.344;2022-10-15T08:28:18;2.95;;;2.28;;
12900;SDS011;6518;50.930;5.344;2022-10-15T08:30:45;3.90;;;2.53;;
12900;SDS011;6518;50.930;5.344;2022-10-15T08:33:14;4.40;;;2.42;;
12900;SDS011;6518;50.930;5.344;2022-10-15T08:35:41;2.47;;;1.90;;
12900;SDS011;6518;50.930;5.344;2022-10-15T08:38:08;2.78;;;2.00;;
12900;SDS011;6518;50.930;5.344;2022-10-15T08:40:35;2.53;;;1.80;;
12900;SDS011;6518;50.930;5.344;2022-10-15T08:43:02;2.25;;;2.00;;
12900;SDS011;6518;50.930;5.344;2022-10-15T08:45:30;3.15;;;1.60;;
12900;SDS011;6518;50.930;5.344;2022-10-15T08:48:03;3.58;;;1.90;;
12900;SDS011;6518;50.930;5.344;2022-10-15T08:50:37;1.40;;;1.30;;
12900;SDS011;6518;50.930;5.344;2022-10-15T08:53:09;1.20;;;1.10;;
12900;SDS011;6518;50.930;5.344;2022-10-15T08:55:38;1.25;;;1.15;;
12900;SDS011;6518;50.930;5.344;2022-10-15T08:58:11;3.97;;;1.20;;
12900;SDS011;6518;50.930;5.344;2022-10-15T09:00:42;1.23;;;1.00;;
12900;SDS011;6518;50.930;5.344;2022-10-15T09:03:17;0.80;;;0.80;;
12900;SDS011;6518;50.930;5.344;2022-10-15T09:05:58;1.20;;;0.90;;
12900;SDS011;6518;50.930;5.344;2022-10-15T09:08:34;1.17;;;0.80;;
12900;SDS011;6518;50.930;5.344;2022-10-15T09:11:12;1.60;;;0.80;;
12900;SDS011;6518;50.930;5.344;2022-10-15T09:13:46;0.90;;;0.82;;
12900;SDS011;6518;50.930;5.344;2022-10-15T09:16:14;2.40;;;0.90;;
12900;SDS011;6518;50.930;5.344;2022-10-15T09:18:43;0.60;;;0.60;;
12900;SDS011;6518;50.930;5.344;2022-10-15T09:21:15;1.17;;;0.70;;
12900;SDS011;6518;50.930;5.344;2022-10-15T09:23:42;1.67;;;0.80;;
12900;SDS011;6518;50.930;5.344;2022-10-15T09:26:15;6.95;;;6.20;;
12900;SDS011;6518;50.930;5.344;2022-10-15T09:28:48;2.85;;;2.55;;
12900;SDS011;6518;50.930;5.344;2022-10-15T09:31:22;1.13;;;0.80;;
12900;SDS011;6518;50.930;5.344;2022-10-15T09:33:55;1.70;;;1.15;;
12900;SDS011;6518;50.930;5.344;2022-10-15T09:36:30;2.15;;;0.80;;
12900;SDS011;6518;50.930;5.344;2022-10-15T09:39:03;1.67;;;0.70;;
12900;SDS011;6518;50.930;5.344;2022-10-15T09:41:51;0.90;;;0.73;;
12900;SDS011;6518;50.930;5.344;2022-10-15T09:44:25;0.73;;;0.63;;
12900;SDS011;6518;50.930;5.344;2022-10-15T09:47:01;1.90;;;0.60;;
12900;SDS011;6518;50.930;5.344;2022-10-15T09:49:40;1.13;;;0.40;;
12900;SDS011;6518;50.930;5.344;2022-10-15T09:52:10;0.50;;;0.40;;
12900;SDS011;6518;50.930;5.344;2022-10-15T09:54:44;0.55;;;0.50;;
12900;SDS011;6518;50.930;5.344;2022-10-15T09:57:18;0.70;;;0.50;;
12900;SDS011;6518;50.930;5.344;2022-10-15T09:59:52;0.85;;;0.47;;
12900;SDS011;6518;50.930;5.344;2022-10-15T10:02:20;0.40;;;0.40;;
12900;SDS011;6518;50.930;5.344;2022-10-15T10:04:48;0.50;;;0.38;;
12900;SDS011;6518;50.930;5.344;2022-10-15T10:07:30;0.47;;;0.32;;
12900;SDS011;6518;50.930;5.344;2022-10-15T10:09:59;0.40;;;0.40;;
12900;SDS011;6518;50.930;5.344;2022-10-15T10:12:30;0.40;;;0.40;;
12900;SDS011;6518;50.930;5.344;2022-10-15T10:14:59;0.90;;;0.50;;
12900;SDS011;6518;50.930;5.344;2022-10-15T10:17:31;1.17;;;0.32;;
12900;SDS011;6518;50.930;5.344;2022-10-15T10:20:02;1.55;;;0.40;;
12900;SDS011;6518;50.930;5.344;2022-10-15T10:22:41;0.38;;;0.38;;
12900;SDS011;6518;50.930;5.344;2022-10-15T10:27:54;2.50;;;0.77;;
12900;SDS011;6518;50.930;5.344;2022-10-15T10:30:23;0.40;;;0.30;;
12900;SDS011;6518;50.930;5.344;2022-10-15T10:32:53;1.10;;;0.60;;
12900;SDS011;6518;50.930;5.344;2022-10-15T10:35:24;0.90;;;0.65;;
12900;SDS011;6518;50.930;5.344;2022-10-15T10:37:59;0.60;;;0.50;;
12900;SDS011;6518;50.930;5.344;2022-10-15T10:40:28;0.60;;;0.45;;
12900;SDS011;6518;50.930;5.344;2022-10-15T10:43:10;1.50;;;0.40;;
12900;SDS011;6518;50.930;5.344;2022-10-15T10:45:51;3.05;;;2.72;;
12900;SDS011;6518;50.930;5.344;2022-10-15T10:48:23;4.13;;;0.60;;
12900;SDS011;6518;50.930;5.344;2022-10-15T10:51:04;4.30;;;2.10;;
12900;SDS011;6518;50.930;5.344;2022-10-15T10:53:36;1.98;;;1.00;;
12900;SDS011;6518;50.930;5.344;2022-10-15T10:56:09;2.92;;;0.40;;
12900;SDS011;6518;50.930;5.344;2022-10-15T10:58:39;2.72;;;1.35;;
12900;SDS011;6518;50.930;5.344;2022-10-15T11:01:11;1.90;;;1.80;;
12900;SDS011;6518;50.930;5.344;2022-10-15T11:03:39;1.05;;;0.47;;
12900;SDS011;6518;50.930;5.344;2022-10-15T11:09:16;2.08;;;0.60;;
12900;SDS011;6518;50.930;5.344;2022-10-15T11:11:57;0.80;;;0.57;;
12900;SDS011;6518;50.930;5.344;2022-10-15T11:14:33;0.52;;;0.50;;
12900;SDS011;6518;50.930;5.344;2022-10-15T11:17:12;1.15;;;0.60;;
12900;SDS011;6518;50.930;5.344;2022-10-15T11:19:46;1.00;;;0.60;;
12900;SDS011;6518;50.930;5.344;2022-10-15T11:22:26;0.50;;;0.50;;
12900;SDS011;6518;50.930;5.344;2022-10-15T11:25:10;1.00;;;0.80;;
12900;SDS011;6518;50.930;5.344;2022-10-15T11:27:51;1.60;;;1.23;;
12900;SDS011;6518;50.930;5.344;2022-10-15T11:30:28;2.10;;;1.83;;
12900;SDS011;6518;50.930;5.344;2022-10-15T11:33:08;1.92;;;1.40;;
12900;SDS011;6518;50.930;5.344;2022-10-15T11:36:00;1.27;;;0.70;;
12900;SDS011;6518;50.930;5.344;2022-10-15T11:38:42;1.33;;;0.70;;
12900;SDS011;6518;50.930;5.344;2022-10-15T11:41:21;1.75;;;1.00;;
12900;SDS011;6518;50.930;5.344;2022-10-15T11:44:12;2.20;;;0.82;;
12900;SDS011;6518;50.930;5.344;2022-10-15T11:46:59;1.85;;;0.77;;
12900;SDS011;6518;50.930;5.344;2022-10-15T11:49:39;1.67;;;0.80;;
12900;SDS011;6518;50.930;5.344;2022-10-15T11:52:17;3.25;;;0.80;;
12900;SDS011;6518;50.930;5.344;2022-10-15T11:55:07;0.75;;;0.70;;
12900;SDS011;6518;50.930;5.344;2022-10-15T11:57:38;1.10;;;1.00;;
12900;SDS011;6518;50.930;5.344;2022-10-15T12:00:11;3.58;;;1.20;;
12900;SDS011;6518;50.930;5.344;2022-10-15T12:02:44;1.23;;;1.00;;
12900;SDS011;6518;50.930;5.344;2022-10-15T12:05:16;1.98;;;1.00;;
12900;SDS011;6518;50.930;5.344;2022-10-15T12:07:45;2.33;;;1.30;;
12900;SDS011;6518;50.930;5.344;2022-10-15T12:10:17;1.65;;;1.10;;
12900;SDS011;6518;50.930;5.344;2022-10-15T12:12:58;1.92;;;1.10;;
12900;SDS011;6518;50.930;5.344;2022-10-15T12:15:33;1.65;;;0.90;;
12900;SDS011;6518;50.930;5.344;2022-10-15T12:18:10;1.38;;;1.00;;
12900;SDS011;6518;50.930;5.344;2022-10-15T12:20:42;1.98;;;1.10;;
12900;SDS011;6518;50.930;5.344;2022-10-15T12:23:21;0.82;;;0.80;;
12900;SDS011;6518;50.930;5.344;2022-10-15T12:25:49;1.35;;;1.02;;
12900;SDS011;6518;50.930;5.344;2022-10-15T12:28:18;1.63;;;1.40;;
12900;SDS011;6518;50.930;5.344;2022-10-15T12:30:54;8.35;;;5.55;;
12900;SDS011;6518;50.930;5.344;2022-10-15T12:33:24;4.93;;;2.50;;
12900;SDS011;6518;50.930;5.344;2022-10-15T12:35:58;7.38;;;1.05;;
12900;SDS011;6518;50.930;5.344;2022-10-15T12:38:28;1.60;;;1.00;;
12900;SDS011;6518;50.930;5.344;2022-10-15T12:40:57;1.08;;;0.95;;
12900;SDS011;6518;50.930;5.344;2022-10-15T12:43:28;1.88;;;1.20;;
12900;SDS011;6518;50.930;5.344;2022-10-15T12:45:57;1.55;;;1.20;;
12900;SDS011;6518;50.930;5.344;2022-10-15T12:48:30;2.60;;;1.42;;
12900;SDS011;6518;50.930;5.344;2022-10-15T12:53:59;2.03;;;1.40;;
12900;SDS011;6518;50.930;5.344;2022-10-15T12:56:36;1.63;;;1.30;;
12900;SDS011;6518;50.930;5.344;2022-10-15T12:59:15;4.35;;;1.90;;
12900;SDS011;6518;50.930;5.344;2022-10-15T13:01:55;2.30;;;1.42;;
12900;SDS011;6518;50.930;5.344;2022-10-15T13:04:22;10.57;;;9.13;;
12900;SDS011;6518;50.930;5.344;2022-10-15T13:06:49;3.72;;;3.03;;
12900;SDS011;6518;50.930;5.344;2022-10-15T13:09:22;1.67;;;0.95;;
12900;SDS011;6518;50.930;5.344;2022-10-15T13:11:55;1.33;;;1.10;;
12900;SDS011;6518;50.930;5.344;2022-10-15T13:14:27;3.28;;;1.40;;
12900;SDS011;6518;50.930;5.344;2022-10-15T13:16:56;2.70;;;1.10;;
12900;SDS011;6518;50.930;5.344;2022-10-15T13:19:25;1.85;;;1.25;;
12900;SDS011;6518;50.930;5.344;2022-10-15T13:21:55;2.20;;;1.35;;
12900;SDS011;6518;50.930;5.344;2022-10-15T13:24:24;1.38;;;1.10;;
12900;SDS011;6518;50.930;5.344;2022-10-15T13:26:52;2.47;;;1.20;;
12900;SDS011;6518;50.930;5.344;2022-10-15T13:29:20;1.40;;;1.30;;
12900;SDS011;6518;50.930;5.344;2022-10-15T13:31:50;3.20;;;1.30;;
12900;SDS011;6518;50.930;5.344;2022-10-15T13:34:23;2.97;;;2.75;;
12900;SDS011;6518;50.930;5.344;2022-10-15T13:36:52;2.42;;;1.60;;
12900;SDS011;6518;50.930;5.344;2022-10-15T13:39:22;3.17;;;1.42;;
12900;SDS011;6518;50.930;5.344;2022-10-15T13:41:54;2.45;;;1.55;;
12900;SDS011;6518;50.930;5.344;2022-10-15T13:44:33;2.45;;;1.00;;
12900;SDS011;6518;50.930;5.344;2022-10-15T13:47:01;1.58;;;1.10;;
12900;SDS011;6518;50.930;5.344;2022-10-15T13:49:28;1.02;;;0.93;;
12900;SDS011;6518;50.930;5.344;2022-10-15T13:51:55;1.30;;;1.10;;
12900;SDS011;6518;50.930;5.344;2022-10-15T13:54:23;2.55;;;1.20;;
12900;SDS011;6518;50.930;5.344;2022-10-15T13:56:54;2.08;;;1.50;;
12900;SDS011;6518;50.930;5.344;2022-10-15T13:59:23;3.92;;;3.45;;
12900;SDS011;6518;50.930;5.344;2022-10-15T14:01:52;2.80;;;1.55;;
12900;SDS011;6518;50.930;5.344;2022-10-15T14:04:27;1.88;;;1.60;;
12900;SDS011;6518;50.930;5.344;2022-10-15T14:06:55;1.52;;;1.40;;
12900;SDS011;6518;50.930;5.344;2022-10-15T14:09:26;3.28;;;1.20;;
12900;SDS011;6518;50.930;5.344;2022-10-15T14:11:56;2.50;;;2.20;;
12900;SDS011;6518;50.930;5.344;2022-10-15T14:14:27;2.50;;;1.95;;
12900;SDS011;6518;50.930;5.344;2022-10-15T14:16:56;1.75;;;1.25;;
12900;SDS011;6518;50.930;5.344;2022-10-15T14:19:25;2.70;;;1.30;;
12900;SDS011;6518;50.930;5.344;2022-10-15T14:21:55;3.08;;;1.33;;
12900;SDS011;6518;50.930;5.344;2022-10-15T14:24:23;1.45;;;1.10;;
12900;SDS011;6518;50.930;5.344;2022-10-15T14:27:00;2.95;;;1.60;;
12900;SDS011;6518;50.930;5.344;2022-10-15T14:29:35;2.63;;;1.20;;
12900;SDS011;6518;50.930;5.344;2022-10-15T14:32:16;1.98;;;1.20;;
12900;SDS011;6518;50.930;5.344;2022-10-15T14:34:46;2.78;;;1.10;;
12900;SDS011;6518;50.930;5.344;2022-10-15T14:37:30;4.82;;;1.30;;
12900;SDS011;6518;50.930;5.344;2022-10-15T14:40:14;4.13;;;1.67;;
12900;SDS011;6518;50.930;5.344;2022-10-15T14:42:44;2.70;;;1.67;;
12900;SDS011;6518;50.930;5.344;2022-10-15T14:45:12;3.78;;;2.05;;
12900;SDS011;6518;50.930;5.344;2022-10-15T14:47:45;2.40;;;1.63;;
12900;SDS011;6518;50.930;5.344;2022-10-15T14:50:15;3.08;;;1.50;;
12900;SDS011;6518;50.930;5.344;2022-10-15T14:52:43;4.57;;;1.85;;
12900;SDS011;6518;50.930;5.344;2022-10-15T14:55:15;1.60;;;1.08;;
12900;SDS011;6518;50.930;5.344;2022-10-15T14:57:52;3.05;;;1.30;;
12900;SDS011;6518;50.930;5.344;2022-10-15T15:00:21;2.72;;;1.27;;
12900;SDS011;6518;50.930;5.344;2022-10-15T15:02:50;2.08;;;1.23;;
12900;SDS011;6518;50.930;5.344;2022-10-15T15:05:20;1.85;;;1.00;;
12900;SDS011;6518;50.930;5.344;2022-10-15T15:07:48;6.28;;;1.60;;
12900;SDS011;6518;50.930;5.344;2022-10-15T15:10:16;4.50;;;1.52;;
12900;SDS011;6518;50.930;5.344;2022-10-15T15:12:44;2.08;;;1.40;;
12900;SDS011;6518;50.930;5.344;2022-10-15T15:15:14;3.65;;;1.40;;
12900;SDS011;6518;50.930;5.344;2022-10-15T15:17:43;2.10;;;1.17;;
12900;SDS011;6518;50.930;5.344;2022-10-15T15:20:10;1.98;;;1.15;;
12900;SDS011;6518;50.930;5.344;2022-10-15T15:22:38;2.15;;;0.98;;
12900;SDS011;6518;50.930;5.344;2022-10-15T15:25:09;3.40;;;1.35;;